createdAt,value
2018-08-17T00:00:07.671Z,985.42
2018-08-17T00:01:08.644Z,985.47
2018-08-17T00:02:08.058Z,985.46
2018-08-17T00:03:08.230Z,985.43
2018-08-17T00:04:08.406Z,985.47
2018-08-17T00:05:08.629Z,985.44
2018-08-17T00:06:08.746Z,985.44
2018-08-17T00:07:08.934Z,985.47
2018-08-17T00:08:09.101Z,985.45
2018-08-17T00:09:09.279Z,985.48
2018-08-17T00:10:09.452Z,985.50
2018-08-17T00:11:09.622Z,985.49
2018-08-17T00:12:09.806Z,985.47
2018-08-17T00:13:09.969Z,985.46
2018-08-17T00:14:10.135Z,985.46
2018-08-17T00:15:11.194Z,985.45
2018-08-17T00:16:10.493Z,985.48
2018-08-17T00:17:10.662Z,985.46
2018-08-17T00:18:10.838Z,985.47
2018-08-17T00:19:11.019Z,985.43
2018-08-17T00:20:11.184Z,985.45
2018-08-17T00:21:11.358Z,985.43
2018-08-17T00:22:11.520Z,985.41
2018-08-17T00:23:11.690Z,985.43
2018-08-17T00:24:11.859Z,985.41
2018-08-17T00:25:12.040Z,985.42
2018-08-17T00:26:12.221Z,985.40
2018-08-17T00:27:12.391Z,985.40
2018-08-17T00:28:12.569Z,985.41
2018-08-17T00:29:12.744Z,985.41
2018-08-17T00:30:13.190Z,985.34
2018-08-17T00:31:13.132Z,985.38
2018-08-17T00:32:13.304Z,985.33
2018-08-17T00:33:18.192Z,985.32
2018-08-17T00:34:13.612Z,985.34
2018-08-17T00:35:13.781Z,985.33
2018-08-17T00:36:14.628Z,985.30
2018-08-17T00:37:16.693Z,985.34
2018-08-17T00:38:14.381Z,985.31
2018-08-17T00:39:14.534Z,985.29
2018-08-17T00:40:14.708Z,985.27
2018-08-17T00:41:14.874Z,985.29
2018-08-17T00:42:15.051Z,985.23
2018-08-17T00:43:15.230Z,985.24
2018-08-17T00:44:15.398Z,985.23
2018-08-17T00:45:15.603Z,985.20
2018-08-17T00:46:15.738Z,985.19
2018-08-17T00:47:21.121Z,985.19
2018-08-17T00:48:16.333Z,985.20
2018-08-17T00:49:16.658Z,985.18
2018-08-17T00:50:16.868Z,985.16
2018-08-17T00:51:17.011Z,985.17
2018-08-17T00:52:18.084Z,985.16
2018-08-17T00:53:17.316Z,985.12
2018-08-17T00:54:17.881Z,985.12
2018-08-17T00:55:17.623Z,985.08
2018-08-17T00:56:17.645Z,985.08
2018-08-17T00:57:18.313Z,985.08
2018-08-17T00:58:17.771Z,985.08
2018-08-17T00:59:17.957Z,985.08
2018-08-17T01:00:18.119Z,985.07
2018-08-17T01:01:18.286Z,985.10
2018-08-17T01:02:19.222Z,985.09
2018-08-17T01:03:18.644Z,985.09
2018-08-17T01:04:18.820Z,985.10
2018-08-17T01:05:18.992Z,985.13
2018-08-17T01:06:19.182Z,985.13
2018-08-17T01:07:19.336Z,985.16
2018-08-17T01:08:19.537Z,985.13
2018-08-17T01:09:19.723Z,985.15
2018-08-17T01:10:20.711Z,985.15
2018-08-17T01:11:20.132Z,985.12
2018-08-17T01:12:20.475Z,985.11
2018-08-17T01:13:20.460Z,985.08
2018-08-17T01:14:20.708Z,985.10
2018-08-17T01:15:20.793Z,985.07
2018-08-17T01:16:20.962Z,985.09
2018-08-17T01:17:21.141Z,985.08
2018-08-17T01:18:21.310Z,985.10
2018-08-17T01:19:21.481Z,985.11
2018-08-17T01:20:21.660Z,985.09
2018-08-17T01:21:21.834Z,985.08
2018-08-17T01:22:22.153Z,985.08
2018-08-17T01:23:22.234Z,985.07
2018-08-17T01:24:22.317Z,985.10
2018-08-17T01:25:22.480Z,985.08
2018-08-17T01:26:22.693Z,985.06
2018-08-17T01:27:22.832Z,985.10
2018-08-17T01:28:23.015Z,985.09
2018-08-17T01:29:23.180Z,985.10
2018-08-17T01:30:23.357Z,985.10
2018-08-17T01:31:23.525Z,985.11
2018-08-17T01:32:23.699Z,985.09
2018-08-17T01:33:23.876Z,985.06
2018-08-17T01:34:24.049Z,985.08
2018-08-17T01:35:24.219Z,985.10
2018-08-17T01:36:24.394Z,985.15
2018-08-17T01:37:24.561Z,985.12
2018-08-17T01:38:25.710Z,985.13
2018-08-17T01:39:26.736Z,985.15
2018-08-17T01:40:25.061Z,985.16
2018-08-17T01:41:25.197Z,985.16
2018-08-17T01:42:25.374Z,985.21
2018-08-17T01:43:25.545Z,985.20
2018-08-17T01:44:25.724Z,985.23
2018-08-17T01:45:25.902Z,985.23
2018-08-17T01:46:26.061Z,985.22
2018-08-17T01:47:26.230Z,985.21
2018-08-17T01:48:26.395Z,985.22
2018-08-17T01:49:28.216Z,985.21
2018-08-17T01:50:26.762Z,985.18
2018-08-17T01:51:29.762Z,985.15
2018-08-17T01:52:27.720Z,985.11
2018-08-17T01:53:27.262Z,985.11
2018-08-17T01:54:27.449Z,985.06
2018-08-17T01:55:27.616Z,985.06
2018-08-17T01:56:27.786Z,985.06
2018-08-17T01:57:27.956Z,985.06
2018-08-17T01:58:28.127Z,985.11
2018-08-17T01:59:28.308Z,985.12
2018-08-17T02:00:28.488Z,985.13
2018-08-17T02:01:28.657Z,985.12
2018-08-17T02:02:28.819Z,985.12
2018-08-17T02:03:28.989Z,985.11
2018-08-17T02:04:29.155Z,985.15
2018-08-17T02:05:29.329Z,985.18
2018-08-17T02:06:29.501Z,985.16
2018-08-17T02:07:29.673Z,985.16
2018-08-17T02:08:29.838Z,985.15
2018-08-17T02:09:30.008Z,985.15
2018-08-17T02:10:30.179Z,985.12
2018-08-17T02:11:31.229Z,985.15
2018-08-17T02:12:31.143Z,985.10
2018-08-17T02:13:30.698Z,985.09
2018-08-17T02:14:30.883Z,985.10
2018-08-17T02:15:31.043Z,985.11
2018-08-17T02:16:31.219Z,985.09
2018-08-17T02:17:31.390Z,985.11
2018-08-17T02:18:31.559Z,985.13
2018-08-17T02:19:31.729Z,985.16
2018-08-17T02:20:31.906Z,985.16
2018-08-17T02:21:32.085Z,985.14
2018-08-17T02:22:32.247Z,985.17
2018-08-17T02:23:32.426Z,985.17
2018-08-17T02:24:32.700Z,985.17
2018-08-17T02:25:32.776Z,985.14
2018-08-17T02:26:32.945Z,985.18
2018-08-17T02:27:33.117Z,985.14
2018-08-17T02:28:33.285Z,985.16
2018-08-17T02:29:33.467Z,985.15
2018-08-17T02:30:33.630Z,985.13
2018-08-17T02:31:33.810Z,985.15
2018-08-17T02:32:33.977Z,985.16
2018-08-17T02:33:34.156Z,985.19
2018-08-17T02:34:34.326Z,985.14
2018-08-17T02:35:34.510Z,985.13
2018-08-17T02:36:34.680Z,985.13
2018-08-17T02:37:34.857Z,985.10
2018-08-17T02:38:35.022Z,985.10
2018-08-17T02:39:35.187Z,985.05
2018-08-17T02:40:35.352Z,985.08
2018-08-17T02:41:35.525Z,985.05
2018-08-17T02:42:35.700Z,985.09
2018-08-17T02:43:35.874Z,985.08
2018-08-17T02:44:36.048Z,985.07
2018-08-17T02:45:36.224Z,985.06
2018-08-17T02:46:36.387Z,985.10
2018-08-17T02:47:36.559Z,985.07
2018-08-17T02:48:36.737Z,985.05
2018-08-17T02:49:36.897Z,985.04
2018-08-17T02:50:37.077Z,985.06
2018-08-17T02:51:37.257Z,985.07
2018-08-17T02:52:37.431Z,985.08
2018-08-17T02:53:37.598Z,985.05
2018-08-17T02:54:37.797Z,985.07
2018-08-17T02:55:37.951Z,985.05
2018-08-17T02:56:38.147Z,985.04
2018-08-17T02:57:38.297Z,985.09
2018-08-17T02:58:38.471Z,985.08
2018-08-17T02:59:38.675Z,985.05
2018-08-17T03:00:38.808Z,985.06
2018-08-17T03:01:38.987Z,985.09
2018-08-17T03:02:39.153Z,985.08
2018-08-17T03:03:39.322Z,985.08
2018-08-17T03:04:39.492Z,985.08
2018-08-17T03:05:39.664Z,985.08
2018-08-17T03:06:39.857Z,985.09
2018-08-17T03:07:40.018Z,985.10
2018-08-17T03:08:40.195Z,985.05
2018-08-17T03:09:40.387Z,985.06
2018-08-17T03:10:40.527Z,985.05
2018-08-17T03:11:40.713Z,985.04
2018-08-17T03:12:40.885Z,985.08
2018-08-17T03:13:41.074Z,985.04
2018-08-17T03:14:41.236Z,985.07
2018-08-17T03:15:41.423Z,985.06
2018-08-17T03:16:42.246Z,985.08
2018-08-17T03:17:41.790Z,985.06
2018-08-17T03:18:42.738Z,985.01
2018-08-17T03:19:42.174Z,985.06
2018-08-17T03:20:42.331Z,985.06
2018-08-17T03:21:42.509Z,985.06
2018-08-17T03:22:42.681Z,985.06
2018-08-17T03:23:42.850Z,985.08
2018-08-17T03:24:43.020Z,985.10
2018-08-17T03:25:43.191Z,985.12
2018-08-17T03:26:43.361Z,985.11
2018-08-17T03:27:43.537Z,985.14
2018-08-17T03:28:43.701Z,985.16
2018-08-17T03:29:43.880Z,985.17
2018-08-17T03:30:44.049Z,985.21
2018-08-17T03:31:44.220Z,985.20
2018-08-17T03:32:44.384Z,985.19
2018-08-17T03:33:44.558Z,985.19
2018-08-17T03:34:44.738Z,985.20
2018-08-17T03:35:44.917Z,985.22
2018-08-17T03:36:45.080Z,985.23
2018-08-17T03:37:45.266Z,985.27
2018-08-17T03:38:46.248Z,985.31
2018-08-17T03:39:46.242Z,985.29
2018-08-17T03:40:45.785Z,985.30
2018-08-17T03:41:45.964Z,985.31
2018-08-17T03:42:46.132Z,985.29
2018-08-17T03:43:46.307Z,985.31
2018-08-17T03:44:46.479Z,985.34
2018-08-17T03:45:46.649Z,985.34
2018-08-17T03:46:47.735Z,985.37
2018-08-17T03:47:47.744Z,985.41
2018-08-17T03:48:47.173Z,985.40
2018-08-17T03:49:48.247Z,985.40
2018-08-17T03:50:47.537Z,985.42
2018-08-17T03:51:47.721Z,985.43
2018-08-17T03:52:47.891Z,985.44
2018-08-17T03:53:48.074Z,985.38
2018-08-17T03:54:48.240Z,985.36
2018-08-17T03:55:49.172Z,985.37
2018-08-17T03:56:48.591Z,985.37
2018-08-17T03:57:48.759Z,985.37
2018-08-17T03:58:48.932Z,985.34
2018-08-17T03:59:49.119Z,985.39
2018-08-17T04:00:49.286Z,985.36
2018-08-17T04:01:49.462Z,985.35
2018-08-17T04:02:49.644Z,985.37
2018-08-17T04:03:49.806Z,985.36
2018-08-17T04:04:49.975Z,985.38
2018-08-17T04:05:50.152Z,985.41
2018-08-17T04:06:50.318Z,985.41
2018-08-17T04:07:50.495Z,985.36
2018-08-17T04:08:50.671Z,985.41
2018-08-17T04:09:50.852Z,985.44
2018-08-17T04:10:51.025Z,985.47
2018-08-17T04:11:51.198Z,985.44
2018-08-17T04:12:51.379Z,985.43
2018-08-17T04:13:51.542Z,985.47
2018-08-17T04:14:51.722Z,985.44
2018-08-17T04:15:51.886Z,985.47
2018-08-17T04:16:52.222Z,985.50
2018-08-17T04:17:52.215Z,985.50
2018-08-17T04:18:52.365Z,985.49
2018-08-17T04:19:52.541Z,985.44
2018-08-17T04:20:52.717Z,985.45
2018-08-17T04:21:52.884Z,985.47
2018-08-17T04:22:53.056Z,985.51
2018-08-17T04:23:53.401Z,985.50
2018-08-17T04:24:53.451Z,985.53
2018-08-17T04:25:53.623Z,985.56
2018-08-17T04:26:53.909Z,985.54
2018-08-17T04:27:53.978Z,985.54
2018-08-17T04:28:54.163Z,985.58
2018-08-17T04:29:54.341Z,985.59
2018-08-17T04:30:54.515Z,985.58
2018-08-17T04:31:55.716Z,985.63
2018-08-17T04:32:54.919Z,985.65
2018-08-17T04:33:55.062Z,985.63
2018-08-17T04:34:55.236Z,985.68
2018-08-17T04:35:55.409Z,985.67
2018-08-17T04:36:55.584Z,985.66
2018-08-17T04:37:55.754Z,985.69
2018-08-17T04:38:55.928Z,985.68
2018-08-17T04:39:56.098Z,985.70
2018-08-17T04:40:56.272Z,985.71
2018-08-17T04:41:56.439Z,985.73
2018-08-17T04:42:56.607Z,985.72
2018-08-17T04:43:56.781Z,985.73
2018-08-17T04:44:56.957Z,985.71
2018-08-17T04:45:57.141Z,985.75
2018-08-17T04:46:57.317Z,985.74
2018-08-17T04:47:57.488Z,985.76
2018-08-17T04:48:57.675Z,985.77
2018-08-17T04:49:57.819Z,985.75
2018-08-17T04:50:58.017Z,985.76
2018-08-17T04:51:58.188Z,985.79
2018-08-17T04:52:58.358Z,985.81
2018-08-17T04:53:58.562Z,985.83
2018-08-17T04:54:58.706Z,985.82
2018-08-17T04:55:58.868Z,985.82
2018-08-17T04:56:59.033Z,985.81
2018-08-17T04:57:59.186Z,985.83
2018-08-17T04:58:59.359Z,985.84
2018-08-17T04:59:59.608Z,985.80
2018-08-17T05:00:59.728Z,985.87
2018-08-17T05:01:59.895Z,985.85
2018-08-17T05:03:00.067Z,985.84
2018-08-17T05:04:00.283Z,985.86
2018-08-17T05:05:00.398Z,985.87
2018-08-17T05:06:00.568Z,985.88
2018-08-17T05:07:00.744Z,985.90
2018-08-17T05:08:00.917Z,985.91
2018-08-17T05:09:01.133Z,985.90
2018-08-17T05:10:01.270Z,985.94
2018-08-17T05:11:01.441Z,985.93
2018-08-17T05:12:01.608Z,985.93
2018-08-17T05:13:01.795Z,985.94
2018-08-17T05:14:01.965Z,985.94
2018-08-17T05:15:02.145Z,985.95
2018-08-17T05:16:02.317Z,985.97
2018-08-17T05:17:02.488Z,985.98
2018-08-17T05:18:02.708Z,986.00
2018-08-17T05:19:02.837Z,985.95
2018-08-17T05:20:03.761Z,985.97
2018-08-17T05:21:03.187Z,986.01
2018-08-17T05:22:03.358Z,985.97
2018-08-17T05:24:36.625Z,985.94
2018-08-17T05:25:36.798Z,985.97
2018-08-17T05:26:36.984Z,985.97
2018-08-17T05:27:37.146Z,985.97
2018-08-17T05:28:37.319Z,986.00
2018-08-17T05:29:37.494Z,985.97
2018-08-17T05:30:37.667Z,986.01
2018-08-17T05:31:37.841Z,986.03
2018-08-17T05:32:38.013Z,986.04
2018-08-17T05:33:38.185Z,986.07
2018-08-17T05:34:38.357Z,986.08
2018-08-17T05:35:38.530Z,986.08
2018-08-17T05:36:38.697Z,986.06
2018-08-17T05:37:38.877Z,986.10
2018-08-17T05:38:39.061Z,986.07
2018-08-17T05:39:40.184Z,986.08
2018-08-17T05:40:39.363Z,986.06
2018-08-17T05:41:39.528Z,986.09
2018-08-17T05:42:39.708Z,986.12
2018-08-17T05:43:39.879Z,986.06
2018-08-17T05:44:40.051Z,986.11
2018-08-17T05:45:40.220Z,986.08
2018-08-17T05:46:40.397Z,986.04
2018-08-17T05:47:40.591Z,986.03
2018-08-17T05:48:41.692Z,986.06
2018-08-17T05:49:40.860Z,986.08
2018-08-17T05:50:41.034Z,986.06
2018-08-17T05:51:41.205Z,986.07
2018-08-17T05:55:46.118Z,986.18
2018-08-17T05:56:46.366Z,986.14
2018-08-17T05:57:46.466Z,986.15
2018-08-17T05:58:46.650Z,986.16
2018-08-17T05:59:46.838Z,986.18
2018-08-17T06:00:47.003Z,986.20
2018-08-17T06:01:47.190Z,986.18
2018-08-17T06:02:47.428Z,986.16
2018-08-17T06:03:47.532Z,986.12
2018-08-17T06:04:47.711Z,986.10
2018-08-17T06:05:47.890Z,986.12
2018-08-17T06:06:48.065Z,986.14
2018-08-17T06:07:48.220Z,986.19
2018-08-17T06:08:48.376Z,986.11
2018-08-17T06:09:48.545Z,986.11
2018-08-17T06:10:48.791Z,986.09
2018-08-17T06:11:48.976Z,986.10
2018-08-17T06:12:49.087Z,986.11
2018-08-17T06:13:49.255Z,986.15
2018-08-17T06:14:49.428Z,986.14
2018-08-17T06:15:49.614Z,986.18
2018-08-17T06:16:49.788Z,986.16
2018-08-17T06:17:49.959Z,986.16
2018-08-17T06:18:50.142Z,986.13
2018-08-17T06:19:50.311Z,986.13
2018-08-17T06:20:50.492Z,986.13
2018-08-17T06:21:50.666Z,986.14
2018-08-17T06:22:50.857Z,986.11
2018-08-17T06:23:51.021Z,986.14
2018-08-17T06:24:51.202Z,986.12
2018-08-17T06:25:51.362Z,986.18
2018-08-17T06:26:51.530Z,986.20
2018-08-17T06:27:51.698Z,986.17
2018-08-17T06:28:51.874Z,986.16
2018-08-17T06:29:52.049Z,986.15
2018-08-17T06:30:52.222Z,986.13
2018-08-17T06:31:52.402Z,986.15
2018-08-17T06:32:52.578Z,986.20
2018-08-17T06:33:52.750Z,986.16
2018-08-17T06:34:52.927Z,986.18
2018-08-17T06:35:53.104Z,986.21
2018-08-17T06:36:53.282Z,986.20
2018-08-17T06:37:53.458Z,986.26
2018-08-17T06:38:53.949Z,986.27
2018-08-17T06:39:53.821Z,986.28
2018-08-17T06:40:53.996Z,986.24
2018-08-17T06:41:54.179Z,986.22
2018-08-17T06:42:54.351Z,986.19
2018-08-17T06:43:54.526Z,986.18
2018-08-17T06:44:54.697Z,986.19
2018-08-17T06:45:54.869Z,986.22
2018-08-17T06:46:55.050Z,986.22
2018-08-17T06:47:55.229Z,986.25
2018-08-17T06:48:55.400Z,986.23
2018-08-17T06:49:55.574Z,986.21
2018-08-17T06:50:55.857Z,986.24
2018-08-17T06:51:55.926Z,986.26
2018-08-17T06:52:56.100Z,986.30
2018-08-17T06:53:56.277Z,986.29
2018-08-17T06:54:56.462Z,986.32
2018-08-17T06:55:56.634Z,986.33
2018-08-17T06:56:56.821Z,986.30
2018-08-17T06:57:56.989Z,986.29
2018-08-17T06:58:57.164Z,986.29
2018-08-17T06:59:57.348Z,986.33
2018-08-17T07:00:57.524Z,986.35
2018-08-17T07:01:57.695Z,986.36
2018-08-17T07:02:57.870Z,986.36
2018-08-17T07:03:58.034Z,986.35
2018-08-17T07:04:58.207Z,986.37
2018-08-17T07:05:58.387Z,986.36
2018-08-17T07:06:58.559Z,986.38
2018-08-17T07:07:58.732Z,986.42
2018-08-17T07:08:58.947Z,986.41
2018-08-17T07:09:59.082Z,986.46
2018-08-17T07:10:59.259Z,986.41
2018-08-17T07:11:59.418Z,986.43
2018-08-17T07:12:59.589Z,986.51
2018-08-17T07:13:59.772Z,986.46
2018-08-17T07:14:59.946Z,986.50
2018-08-17T07:16:00.120Z,986.49
2018-08-17T07:17:00.297Z,986.53
2018-08-17T07:18:00.476Z,986.59
2018-08-17T07:19:00.651Z,986.65
2018-08-17T07:20:00.825Z,986.67
2018-08-17T07:21:01.011Z,986.66
2018-08-17T07:22:01.188Z,986.62
2018-08-17T07:23:01.362Z,986.57
2018-08-17T07:24:01.539Z,986.60
2018-08-17T07:25:01.714Z,986.60
2018-08-17T07:26:01.885Z,986.63
2018-08-17T07:27:02.062Z,986.64
2018-08-17T07:28:02.258Z,986.64
2018-08-17T07:29:02.420Z,986.67
2018-08-17T07:30:02.597Z,986.65
2018-08-17T07:31:02.776Z,986.70
2018-08-17T07:32:02.949Z,986.71
2018-08-17T07:33:03.125Z,986.74
2018-08-17T07:34:03.303Z,986.80
2018-08-17T07:35:03.481Z,986.81
2018-08-17T07:36:03.652Z,986.80
2018-08-17T07:37:03.824Z,986.84
2018-08-17T07:38:04.003Z,986.85
2018-08-17T07:39:04.175Z,986.88
2018-08-17T07:40:04.355Z,986.96
2018-08-17T07:41:04.531Z,986.92
2018-08-17T07:42:04.708Z,986.90
2018-08-17T07:43:04.889Z,986.86
2018-08-17T07:44:05.059Z,986.88
2018-08-17T07:45:05.250Z,986.89
2018-08-17T07:46:05.433Z,986.88
2018-08-17T07:47:05.607Z,986.88
2018-08-17T07:48:05.839Z,986.85
2018-08-17T07:49:05.951Z,986.84
2018-08-17T07:50:06.126Z,986.88
2018-08-17T07:51:06.302Z,986.89
2018-08-17T07:52:06.473Z,986.92
2018-08-17T07:53:06.659Z,986.99
2018-08-17T07:54:06.833Z,987.01
2018-08-17T07:55:07.017Z,987.02
2018-08-17T07:56:07.190Z,986.98
2018-08-17T07:57:07.367Z,987.01
2018-08-17T07:58:09.596Z,986.99
2018-08-17T07:59:07.827Z,987.01
2018-08-17T08:00:07.927Z,987.05
2018-08-17T08:01:08.104Z,987.08
2018-08-17T08:02:08.292Z,987.13
2018-08-17T08:03:08.471Z,987.12
2018-08-17T08:04:08.651Z,987.11
2018-08-17T08:05:08.823Z,987.08
2018-08-17T08:06:09.001Z,987.09
2018-08-17T08:07:09.181Z,987.17
2018-08-17T08:08:09.353Z,987.21
2018-08-17T08:09:09.523Z,987.17
2018-08-17T08:10:09.698Z,987.16
2018-08-17T08:11:09.926Z,987.15
2018-08-17T08:12:10.060Z,987.18
2018-08-17T08:13:10.236Z,987.21
2018-08-17T08:14:10.410Z,987.20
2018-08-17T08:15:10.583Z,987.27
2018-08-17T08:16:10.763Z,987.29
2018-08-17T08:17:10.946Z,987.29
2018-08-17T08:18:11.128Z,987.30
2018-08-17T08:19:11.295Z,987.31
2018-08-17T08:20:11.519Z,987.31
2018-08-17T08:21:11.641Z,987.31
2018-08-17T08:22:11.826Z,987.38
2018-08-17T08:23:12.002Z,987.45
2018-08-17T08:24:12.168Z,987.53
2018-08-17T08:25:12.344Z,987.47
2018-08-17T08:26:12.523Z,987.51
2018-08-17T08:27:12.702Z,987.57
2018-08-17T08:28:12.885Z,987.55
2018-08-17T08:29:13.056Z,987.53
2018-08-17T08:30:13.227Z,987.49
2018-08-17T08:31:13.399Z,987.47
2018-08-17T08:32:13.581Z,987.42
2018-08-17T08:33:13.757Z,987.45
2018-08-17T08:34:13.935Z,987.48
2018-08-17T08:35:14.115Z,987.53
2018-08-17T08:36:14.280Z,987.49
2018-08-17T08:37:14.468Z,987.52
2018-08-17T08:38:14.653Z,987.55
2018-08-17T08:39:14.833Z,987.57
2018-08-17T08:40:15.005Z,987.62
2018-08-17T08:41:15.180Z,987.65
2018-08-17T08:42:15.362Z,987.69
2018-08-17T08:43:15.551Z,987.70
2018-08-17T08:44:15.730Z,987.79
2018-08-17T08:45:15.907Z,987.74
2018-08-17T08:46:16.072Z,987.74
2018-08-17T08:47:16.253Z,987.68
2018-08-17T08:48:16.429Z,987.71
2018-08-17T08:49:16.618Z,987.70
2018-08-17T08:50:16.789Z,987.75
2018-08-17T08:51:16.970Z,987.74
2018-08-17T08:52:17.148Z,987.77
2018-08-17T08:53:17.332Z,987.77
2018-08-17T08:54:17.502Z,987.78
2018-08-17T08:55:17.690Z,987.82
2018-08-17T08:56:17.875Z,987.85
2018-08-17T08:57:18.059Z,987.88
2018-08-17T08:58:18.227Z,987.93
2018-08-17T08:59:18.408Z,987.93
2018-08-17T09:00:18.593Z,988.03
2018-08-17T09:01:18.769Z,988.01
2018-08-17T09:02:18.943Z,987.96
2018-08-17T09:03:19.124Z,987.81
2018-08-17T09:04:19.305Z,987.85
2018-08-17T09:05:19.487Z,987.92
2018-08-17T09:06:19.674Z,987.88
2018-08-17T09:07:19.860Z,988.00
2018-08-17T09:08:20.107Z,987.97
2018-08-17T09:09:20.218Z,988.04
2018-08-17T09:10:20.402Z,988.03
2018-08-17T09:11:20.604Z,987.97
2018-08-17T09:12:20.787Z,987.99
2018-08-17T09:13:20.967Z,988.02
2018-08-17T09:14:21.162Z,988.07
2018-08-17T09:15:21.343Z,988.04
2018-08-17T09:16:21.533Z,987.94
2018-08-17T09:17:21.711Z,987.87
2018-08-17T09:18:21.896Z,987.78
2018-08-17T09:19:22.073Z,987.83
2018-08-17T09:20:22.325Z,987.90
2018-08-17T09:21:22.435Z,987.98
2018-08-17T09:22:22.619Z,987.99
2018-08-17T09:23:22.803Z,987.93
2018-08-17T09:24:22.981Z,987.94
2018-08-17T09:25:23.164Z,987.90
2018-08-17T09:26:23.355Z,988.01
2018-08-17T09:27:23.540Z,987.98
2018-08-17T09:28:23.723Z,988.03
2018-08-17T09:29:23.908Z,988.11
2018-08-17T09:30:24.094Z,988.05
2018-08-17T09:31:24.278Z,988.22
2018-08-17T09:32:24.468Z,988.18
2018-08-17T09:33:24.657Z,988.17
2018-08-17T09:34:24.839Z,988.09
2018-08-17T09:35:25.021Z,988.14
2018-08-17T09:36:25.207Z,988.11
2018-08-17T09:37:25.399Z,988.07
2018-08-17T09:38:25.586Z,988.06
2018-08-17T09:39:25.764Z,988.06
2018-08-17T09:40:25.953Z,988.08
2018-08-17T09:41:26.164Z,988.08
2018-08-17T09:42:26.345Z,988.10
2018-08-17T09:43:26.529Z,988.16
2018-08-17T09:44:26.723Z,988.23
2018-08-17T09:45:26.905Z,988.20
2018-08-17T09:46:27.097Z,988.18
2018-08-17T09:47:27.281Z,988.23
2018-08-17T09:48:27.478Z,988.22
2018-08-17T09:49:27.663Z,988.27
2018-08-17T09:50:27.846Z,988.27
2018-08-17T09:51:28.138Z,988.19
2018-08-17T09:52:28.241Z,988.24
2018-08-17T09:53:28.440Z,988.23
2018-08-17T09:54:28.644Z,988.30
2018-08-17T09:55:28.831Z,988.21
2018-08-17T09:56:29.023Z,988.15
2018-08-17T09:57:29.224Z,988.21
2018-08-17T09:58:29.399Z,988.16
2018-08-17T09:59:29.589Z,988.22
2018-08-17T10:00:29.791Z,988.26
2018-08-17T10:01:29.981Z,988.30
2018-08-17T10:02:30.181Z,988.33
2018-08-17T10:03:30.370Z,988.25
2018-08-17T10:04:30.559Z,988.23
2018-08-17T10:05:30.754Z,988.36
2018-08-17T10:06:30.957Z,988.38
2018-08-17T10:07:31.148Z,988.39
2018-08-17T10:08:31.346Z,988.45
2018-08-17T10:09:31.542Z,988.53
2018-08-17T10:10:31.730Z,988.39
2018-08-17T10:11:31.924Z,988.50
2018-08-17T10:12:32.113Z,988.48
2018-08-17T10:13:32.316Z,988.46
2018-08-17T10:14:32.499Z,988.45
2018-08-17T10:15:32.692Z,988.46
2018-08-17T10:16:32.891Z,988.45
2018-08-17T10:17:33.081Z,988.40
2018-08-17T10:18:33.276Z,988.52
2018-08-17T10:19:33.470Z,988.58
2018-08-17T10:20:33.667Z,988.53
2018-08-17T10:21:34.208Z,988.57
2018-08-17T10:22:34.078Z,988.67
2018-08-17T10:23:34.264Z,988.94
2018-08-17T10:24:34.458Z,989.46
2018-08-17T10:25:34.652Z,989.98
2018-08-17T10:26:34.853Z,991.15
2018-08-17T10:27:35.047Z,992.00
2018-08-17T10:28:35.236Z,993.65
2018-08-17T10:29:35.435Z,994.59
2018-08-17T10:30:35.625Z,997.31
2018-08-17T10:31:35.823Z,999.50
2018-08-17T10:32:36.019Z,1001.19
2018-08-17T10:33:36.209Z,1003.32
2018-08-17T10:34:36.410Z,1007.73
2018-08-17T10:35:36.612Z,1010.76
2018-08-17T10:36:36.792Z,1007.12
2018-08-17T10:37:37.001Z,1004.66
2018-08-17T10:38:37.193Z,1002.99
2018-08-17T10:39:37.388Z,1003.88
2018-08-17T10:40:37.606Z,1002.26
2018-08-17T10:41:37.774Z,1003.53
2018-08-17T10:42:37.965Z,1005.92
2018-08-17T10:43:38.969Z,1005.67
2018-08-17T10:47:04.649Z,1006.33
2018-08-17T10:48:04.870Z,1008.14
2018-08-17T10:49:05.122Z,1009.22
2018-08-17T10:50:05.255Z,1006.83
2018-08-17T10:51:05.480Z,1009.14
2018-08-17T10:52:05.646Z,1011.12
2018-08-17T10:53:05.848Z,1012.07
2018-08-17T10:54:06.050Z,1010.82
2018-08-17T10:55:06.254Z,1009.84
2018-08-17T10:56:06.450Z,1008.82
2018-08-17T10:57:06.647Z,1008.98
2018-08-17T10:58:06.840Z,1008.74
2018-08-17T10:59:07.038Z,1008.38
2018-08-17T11:00:07.239Z,1010.11
2018-08-17T11:01:07.614Z,1010.78
2018-08-17T11:02:07.609Z,1010.39
2018-08-17T11:03:07.798Z,1009.35
2018-08-17T11:04:07.992Z,1008.25
2018-08-17T11:05:08.198Z,1007.90
2018-08-17T11:06:08.392Z,1007.29
2018-08-17T11:07:08.591Z,1006.38
2018-08-17T11:08:08.784Z,1006.58
2018-08-17T11:09:08.991Z,1006.96
2018-08-17T11:10:09.187Z,1006.81
2018-08-17T11:11:09.461Z,1006.01
2018-08-17T11:12:09.595Z,1005.40
2018-08-17T11:13:09.791Z,1004.13
2018-08-17T11:14:09.993Z,1003.19
2018-08-17T11:15:10.190Z,1002.46
2018-08-17T11:16:10.388Z,1001.62
2018-08-17T11:17:10.588Z,1000.80
2018-08-17T11:18:10.784Z,999.76
2018-08-17T11:19:10.989Z,998.98
2018-08-17T11:20:11.194Z,998.42
2018-08-17T11:21:11.394Z,997.87
2018-08-17T11:22:11.606Z,997.25
2018-08-17T11:23:11.810Z,996.91
2018-08-17T11:24:12.001Z,996.41
2018-08-17T11:25:12.221Z,996.19
2018-08-17T11:26:12.426Z,996.00
2018-08-17T11:27:12.659Z,995.45
2018-08-17T11:28:12.835Z,995.19
2018-08-17T11:29:13.042Z,995.19
2018-08-17T11:30:13.237Z,995.32
2018-08-17T11:31:13.441Z,995.18
2018-08-17T11:32:13.645Z,995.10
2018-08-17T11:33:13.845Z,995.04
2018-08-17T11:34:14.060Z,994.77
2018-08-17T11:35:14.238Z,994.89
2018-08-17T11:36:14.439Z,994.86
2018-08-17T11:37:14.648Z,994.78
2018-08-17T11:38:14.880Z,994.49
2018-08-17T11:39:15.051Z,994.32
2018-08-17T11:40:15.252Z,994.41
2018-08-17T11:41:15.602Z,994.28
2018-08-17T11:42:15.592Z,994.15
2018-08-17T11:43:15.804Z,994.05
2018-08-17T11:44:15.994Z,994.00
2018-08-17T11:45:16.197Z,993.69
2018-08-17T11:46:16.401Z,993.44
2018-08-17T11:47:16.602Z,993.23
2018-08-17T11:48:16.796Z,993.17
2018-08-17T11:49:16.999Z,993.52
2018-08-17T11:50:17.204Z,993.19
2018-08-17T11:51:17.413Z,992.99
2018-08-17T11:52:17.618Z,992.94
2018-08-17T11:53:17.808Z,993.01
2018-08-17T11:54:18.007Z,992.99
2018-08-17T11:55:18.220Z,993.16
2018-08-17T11:56:18.431Z,993.46
2018-08-17T11:57:18.644Z,993.64
2018-08-17T11:58:18.860Z,993.59
2018-08-17T11:59:19.059Z,993.62
2018-08-17T12:00:19.263Z,993.89
2018-08-17T12:01:19.471Z,994.10
2018-08-17T12:02:19.679Z,994.16
2018-08-17T12:03:19.874Z,994.29
2018-08-17T12:04:20.084Z,994.60
2018-08-17T12:05:20.286Z,994.65
2018-08-17T12:06:20.498Z,994.63
2018-08-17T12:07:20.703Z,994.53
2018-08-17T12:08:21.004Z,994.67
2018-08-17T12:09:21.107Z,994.69
2018-08-17T12:10:21.310Z,994.31
2018-08-17T12:11:21.519Z,994.35
2018-08-17T12:12:21.740Z,993.88
2018-08-17T12:13:21.950Z,993.41
2018-08-17T12:14:22.154Z,992.88
2018-08-17T12:16:55.502Z,993.06
2018-08-17T12:17:55.699Z,992.94
2018-08-17T12:18:55.900Z,992.88
2018-08-17T12:19:56.106Z,992.80
2018-08-17T12:20:56.309Z,992.38
2018-08-17T12:21:56.517Z,992.26
2018-08-17T12:22:56.722Z,992.02
2018-08-17T12:23:56.924Z,991.75
2018-08-17T12:24:57.160Z,991.35
2018-08-17T12:25:57.387Z,990.21
2018-08-17T12:26:57.572Z,989.68
2018-08-17T12:27:57.765Z,988.17
2018-08-17T12:28:57.990Z,987.52
2018-08-17T12:29:58.166Z,987.17
2018-08-17T12:30:58.387Z,987.17
2018-08-17T12:31:58.673Z,987.15
2018-08-17T12:32:58.805Z,987.25
2018-08-17T12:33:59.018Z,988.00
2018-08-17T12:34:59.312Z,988.94
2018-08-17T12:35:59.423Z,988.57
2018-08-17T12:36:59.620Z,987.84
2018-08-17T12:37:59.806Z,987.29